| Date | Time | Temp. (oF) | Dew Point (oF) | Rel. Hum. (%) | Press. (in.) | Wind Dir. | Wind Speed (mph) | Hourly Rainfall (in.) |
|
|---|---|---|---|---|---|---|---|---|---|
| 1 | 07/05 | 00:00 | 69 | 54 | 59 | 29.91 | NW | 0 | 0.00 |
| 2 | 07/04 | 23:00 | 70 | 54 | 58 | 29.90 | NW | 1 | 0.00 |
| 3 | 07/04 | 22:00 | 71 | 53 | 55 | 29.90 | WSW | 3 | 0.00 |
| 4 | 07/04 | 21:00 | 73 | 54 | 52 | 29.88 | WNW | 0 | 0.00 |
| 5 | 07/04 | 20:00 | 75 | 54 | 49 | 29.88 | WNW | 3 | 0.00 |
| 6 | 07/04 | 19:00 | 77 | 55 | 47 | 29.87 | N | 4 | 0.00 |
| 7 | 07/04 | 18:00 | 78 | 55 | 46 | 29.86 | NNW | 5 | 0.00 |
| 8 | 07/04 | 17:00 | 81 | 55 | 42 | 29.86 | WNW | 7 | 0.00 |
| 9 | 07/04 | 16:00 | 83 | 57 | 42 | 29.87 | NW | 8 | 0.00 |
| 10 | 07/04 | 15:00 | 81 | 56 | 43 | 29.89 | WSW | 5 | 0.00 |
| 11 | 07/04 | 14:00 | 80 | 56 | 45 | 29.91 | WNW | 4 | 0.00 |
| 12 | 07/04 | 13:00 | 79 | 59 | 52 | 29.91 | W | 4 | 0.00 |
| 13 | miss | miss | miss | miss | miss | miss | miss | miss | |
| 14 | 07/04 | 12:25 | 77 | 57 | 51 | 29.92 | WNW | 13 | 0.00 |
| 15 | miss | miss | miss | miss | miss | miss | miss | miss | |
| 16 | 07/04 | 12:23 | 77 | 57 | 52 | 29.92 | WNW | 10 | 0.00 |
| 17 | miss | miss | miss | miss | miss | miss | miss | miss | |
| 18 | 07/04 | 12:21 | 77 | 57 | 52 | 29.92 | W | 12 | 0.00 |
| 19 | miss | miss | miss | miss | miss | miss | miss | miss | |
| 20 | 07/04 | 12:19 | 77 | 57 | 51 | 29.92 | W | 5 | 0.00 |
| 21 | miss | miss | miss | miss | miss | miss | miss | miss | |
| 22 | 07/04 | 12:17 | 77 | 57 | 52 | 29.92 | NNW | 10 | 0.00 |
| 23 | miss | miss | miss | miss | miss | miss | miss | miss | |
| 24 | 07/04 | 12:15 | 77 | 57 | 52 | 29.92 | NW | 2 | 0.00 |
| 25 | miss | miss | miss | miss | miss | miss | miss | miss | |
| 26 | 07/04 | 12:13 | 77 | 59 | 55 | 29.93 | NW | 3 | 0.00 |
| 27 | miss | miss | miss | miss | miss | miss | miss | miss | |
| 28 | 07/04 | 12:13 | 77 | 59 | 55 | 29.93 | NW | 3 | 0.00 |
| 29 | miss | miss | miss | miss | miss | miss | miss | miss | |
| 30 | 07/04 | 12:13 | 77 | 59 | 55 | 29.93 | NW | 3 | 0.00 |
| 31 | miss | miss | miss | miss | miss | miss | miss | miss | |
| 32 | 07/04 | 12:13 | 77 | 59 | 55 | 29.93 | NW | 3 | 0.00 |
| 33 | miss | miss | miss | miss | miss | miss | miss | miss | |
| 34 | 07/04 | 12:13 | 77 | 59 | 55 | 29.93 | NW | 3 | 0.00 |
| 35 | miss | miss | miss | miss | miss | miss | miss | miss | |
| 36 | 07/04 | 12:13 | 77 | 59 | 55 | 29.93 | NW | 3 | 0.00 |
| 37 | 07/04 | 12:00 | 77 | 58 | 54 | 29.93 | WNW | 8 | 0.00 |
| 38 | 07/04 | 11:00 | 74 | 59 | 61 | 29.93 | W | 9 | 0.00 |
| 39 | 07/04 | 10:00 | 73 | 60 | 65 | 29.94 | NW | 3 | 0.00 |
| 40 | 07/04 | 09:00 | 71 | 61 | 71 | 29.95 | W | 5 | 0.00 |
| 41 | 07/04 | 08:00 | 67 | 61 | 82 | 29.94 | WSW | 0 | 0.00 |
| 42 | 07/04 | 07:00 | 62 | 58 | 89 | 29.94 | WSW | 0 | 0.00 |
| 43 | 07/04 | 06:00 | 60 | 57 | 90 | 29.94 | WSW | 0 | 0.00 |
| 44 | 07/04 | 05:00 | 60 | 56 | 88 | 29.93 | SSW | 0 | 0.00 |
| 45 | 07/04 | 04:00 | 63 | 58 | 84 | 29.92 | SW | 0 | 0.00 |
| 46 | miss | miss | miss | miss | miss | miss | miss | miss | |
| 47 | 07/04 | 03:37 | 63 | 57 | 83 | 29.93 | W | 0 | 0.00 |
| 48 | miss | miss | miss | miss | miss | miss | miss | miss | |
| 49 | 07/04 | 03:35 | 63 | 57 | 83 | 29.92 | W | 0 | 0.00 |
| 50 | miss | miss | miss | miss | miss | miss | miss | miss | |
| 51 | 07/04 | 03:35 | 63 | 57 | 83 | 29.92 | W | 0 | 0.00 |
| 52 | miss | miss | miss | miss | miss | miss | miss | miss | |
| 53 | 07/04 | 03:35 | 63 | 57 | 83 | 29.92 | W | 0 | 0.00 |
| 54 | miss | miss | miss | miss | miss | miss | miss | miss | |
| 55 | 07/04 | 03:35 | 63 | 57 | 83 | 29.92 | W | 0 | 0.00 |
| 56 | miss | miss | miss | miss | miss | miss | miss | miss | |
| 57 | 07/04 | 03:35 | 63 | 57 | 83 | 29.92 | W | 0 | 0.00 |
| 58 | miss | miss | miss | miss | miss | miss | miss | miss | |
| 59 | 07/04 | 03:35 | 63 | 57 | 83 | 29.92 | W | 0 | 0.00 |
| 60 | miss | miss | miss | miss | miss | miss | miss | miss | |
| 61 | 07/04 | 03:35 | 63 | 57 | 83 | 29.92 | W | 0 | 0.00 |
| 62 | miss | miss | miss | miss | miss | miss | miss | miss | |
| 63 | 07/04 | 03:35 | 63 | 57 | 83 | 29.92 | W | 0 | 0.00 |
| 64 | miss | miss | miss | miss | miss | miss | miss | miss | |
| 65 | 07/04 | 03:35 | 63 | 57 | 83 | 29.92 | W | 0 | 0.00 |
| 66 | miss | miss | miss | miss | miss | miss | miss | miss | |
| 67 | 07/04 | 03:35 | 63 | 57 | 83 | 29.92 | W | 0 | 0.00 |
| 68 | miss | miss | miss | miss | miss | miss | miss | miss | |
| 69 | 07/04 | 03:35 | 63 | 57 | 83 | 29.92 | W | 0 | 0.00 |
| 70 | 07/04 | 03:00 | 63 | 57 | 83 | 29.93 | W | 0 | 0.00 |
| 71 | 07/04 | 02:00 | 65 | 57 | 78 | 29.93 | W | 0 | 0.00 |
| 72 | 07/04 | 01:00 | 67 | 59 | 76 | 29.94 | NNW | 0 | 0.00 |
| 73 | 07/04 | 00:00 | 69 | 59 | 73 | 29.94 | WNW | 4 | 0.00 |
| 74 | 07/03 | 23:00 | 70 | 59 | 70 | 29.93 | W | 10 | 0.00 |
| 75 | 07/03 | 22:00 | 70 | 59 | 70 | 29.92 | WNW | 0 | 0.00 |
| 76 | 07/03 | 21:00 | 71 | 60 | 70 | 29.90 | WSW | 0 | 0.00 |
| 77 | 07/03 | 20:00 | 73 | 61 | 68 | 29.87 | WNW | 3 | 0.00 |
| 78 | 07/03 | 19:00 | 75 | 65 | 72 | 29.87 | SW | 0 | 0.00 |
| 79 | 07/03 | 18:00 | 70 | 64 | 84 | 29.86 | WNW | 3 | 0.06 |
| 80 | 07/03 | 17:00 | 78 | 60 | 55 | 29.85 | WSW | 3 | 0.00 |
| 81 | 07/03 | 16:00 | 78 | 60 | 55 | 29.86 | WNW | 3 | 0.00 |
| 82 | 07/03 | 15:00 | 77 | 59 | 56 | 29.87 | NW | 9 | 0.00 |
| 83 | 07/03 | 14:00 | 76 | 61 | 62 | 29.89 | WSW | 6 | 0.00 |
| 84 | 07/03 | 13:00 | 76 | 60 | 59 | 29.90 | SSW | 4 | 0.00 |
| 85 | 07/03 | 12:00 | 74 | 61 | 66 | 29.91 | NW | 2 | 0.00 |
| 86 | 07/03 | 11:00 | 71 | 61 | 73 | 29.91 | NNW | 8 | 0.00 |
| 87 | 07/03 | 10:00 | 69 | 60 | 75 | 29.90 | WNW | 5 | 0.00 |
| 88 | 07/03 | 09:00 | 67 | 60 | 79 | 29.90 | NW | 4 | 0.00 |
| 89 | 07/03 | 08:00 | 66 | 60 | 82 | 29.90 | WNW | 5 | 0.00 |
| 90 | 07/03 | 07:00 | 65 | 59 | 83 | 29.88 | WNW | 7 | 0.00 |
| 91 | 07/03 | 06:00 | 64 | 59 | 84 | 29.87 | WNW | 2 | 0.00 |
| 92 | 07/03 | 05:00 | 65 | 59 | 83 | 29.85 | WSW | 1 | 0.00 |
| 93 | 07/03 | 04:00 | 64 | 59 | 84 | 29.85 | WNW | 0 | 0.00 |
| 94 | 07/03 | 03:00 | 64 | 59 | 85 | 29.85 | W | 2 | 0.00 |
| 95 | 07/03 | 02:00 | 65 | 60 | 85 | 29.85 | WSW | 4 | 0.00 |
| 96 | 07/03 | 01:00 | 65 | 60 | 85 | 29.85 | W | 0 | 0.00 |
| 97 | 07/03 | 00:00 | 66 | 62 | 87 | 29.85 | WSW | 3 | -0.06 |